sensor_id;sensor_type;location;lat;lon;timestamp;P1;durP1;ratioP1;P2;durP2;ratioP2
5052;SDS011;2545;50.892;5.740;2023-01-25T00:01:19;22.30;;;14.43;;
5052;SDS011;2545;50.892;5.740;2023-01-25T00:03:45;22.80;;;15.00;;
5052;SDS011;2545;50.892;5.740;2023-01-25T00:06:10;22.57;;;15.93;;
5052;SDS011;2545;50.892;5.740;2023-01-25T00:08:35;24.17;;;15.23;;
5052;SDS011;2545;50.892;5.740;2023-01-25T00:11:02;25.53;;;15.33;;
5052;SDS011;2545;50.892;5.740;2023-01-25T00:13:28;21.57;;;14.43;;
5052;SDS011;2545;50.892;5.740;2023-01-25T00:15:53;32.27;;;16.00;;
5052;SDS011;2545;50.892;5.740;2023-01-25T00:18:24;25.80;;;16.23;;
5052;SDS011;2545;50.892;5.740;2023-01-25T00:20:49;25.03;;;15.33;;
5052;SDS011;2545;50.892;5.740;2023-01-25T00:23:15;24.77;;;15.67;;
5052;SDS011;2545;50.892;5.740;2023-01-25T00:25:40;23.93;;;15.07;;
5052;SDS011;2545;50.892;5.740;2023-01-25T00:28:05;25.63;;;15.13;;
5052;SDS011;2545;50.892;5.740;2023-01-25T00:30:31;26.97;;;14.23;;
5052;SDS011;2545;50.892;5.740;2023-01-25T00:33:06;26.97;;;15.20;;
5052;SDS011;2545;50.892;5.740;2023-01-25T00:35:54;26.50;;;14.47;;
5052;SDS011;2545;50.892;5.740;2023-01-25T00:38:32;28.30;;;16.13;;
5052;SDS011;2545;50.892;5.740;2023-01-25T00:40:59;28.73;;;15.13;;
5052;SDS011;2545;50.892;5.740;2023-01-25T00:43:24;22.60;;;13.73;;
5052;SDS011;2545;50.892;5.740;2023-01-25T00:45:50;20.80;;;13.47;;
5052;SDS011;2545;50.892;5.740;2023-01-25T00:48:16;22.60;;;14.47;;
5052;SDS011;2545;50.892;5.740;2023-01-25T00:50:41;23.97;;;14.83;;
5052;SDS011;2545;50.892;5.740;2023-01-25T00:53:06;24.90;;;14.33;;
5052;SDS011;2545;50.892;5.740;2023-01-25T00:55:31;19.97;;;14.47;;
5052;SDS011;2545;50.892;5.740;2023-01-25T00:57:57;23.07;;;14.53;;
5052;SDS011;2545;50.892;5.740;2023-01-25T01:00:22;21.90;;;14.13;;
5052;SDS011;2545;50.892;5.740;2023-01-25T01:02:47;24.73;;;15.87;;
5052;SDS011;2545;50.892;5.740;2023-01-25T01:05:13;25.43;;;14.67;;
5052;SDS011;2545;50.892;5.740;2023-01-25T01:07:38;22.60;;;13.90;;
5052;SDS011;2545;50.892;5.740;2023-01-25T01:10:04;23.27;;;15.03;;
5052;SDS011;2545;50.892;5.740;2023-01-25T01:12:30;25.73;;;13.60;;
5052;SDS011;2545;50.892;5.740;2023-01-25T01:14:55;23.93;;;14.60;;
5052;SDS011;2545;50.892;5.740;2023-01-25T01:17:20;26.70;;;15.37;;
5052;SDS011;2545;50.892;5.740;2023-01-25T01:19:46;25.77;;;15.43;;
5052;SDS011;2545;50.892;5.740;2023-01-25T01:22:11;21.97;;;14.23;;
5052;SDS011;2545;50.892;5.740;2023-01-25T01:24:37;24.17;;;14.73;;
5052;SDS011;2545;50.892;5.740;2023-01-25T01:27:02;19.73;;;13.93;;
5052;SDS011;2545;50.892;5.740;2023-01-25T01:29:27;23.43;;;15.63;;
5052;SDS011;2545;50.892;5.740;2023-01-25T01:31:53;20.37;;;13.97;;
5052;SDS011;2545;50.892;5.740;2023-01-25T01:34:18;22.77;;;14.73;;
5052;SDS011;2545;50.892;5.740;2023-01-25T01:36:44;25.23;;;14.60;;
5052;SDS011;2545;50.892;5.740;2023-01-25T01:39:10;24.47;;;15.40;;
5052;SDS011;2545;50.892;5.740;2023-01-25T01:41:35;25.37;;;15.27;;
5052;SDS011;2545;50.892;5.740;2023-01-25T01:44:02;25.63;;;15.10;;
5052;SDS011;2545;50.892;5.740;2023-01-25T01:46:30;28.03;;;16.87;;
5052;SDS011;2545;50.892;5.740;2023-01-25T01:49:21;28.23;;;15.77;;
5052;SDS011;2545;50.892;5.740;2023-01-25T01:51:57;27.53;;;16.67;;
5052;SDS011;2545;50.892;5.740;2023-01-25T01:54:33;26.23;;;15.20;;
5052;SDS011;2545;50.892;5.740;2023-01-25T01:59:41;25.60;;;15.30;;
5052;SDS011;2545;50.892;5.740;2023-01-25T02:02:14;25.07;;;14.23;;
5052;SDS011;2545;50.892;5.740;2023-01-25T02:04:40;33.20;;;16.67;;
5052;SDS011;2545;50.892;5.740;2023-01-25T02:07:14;31.57;;;15.73;;
5052;SDS011;2545;50.892;5.740;2023-01-25T02:09:42;28.40;;;16.30;;
5052;SDS011;2545;50.892;5.740;2023-01-25T02:12:08;24.73;;;15.67;;
5052;SDS011;2545;50.892;5.740;2023-01-25T02:14:36;27.60;;;16.90;;
5052;SDS011;2545;50.892;5.740;2023-01-25T02:17:08;27.47;;;16.37;;
5052;SDS011;2545;50.892;5.740;2023-01-25T02:22:18;25.83;;;14.60;;
5052;SDS011;2545;50.892;5.740;2023-01-25T02:25:07;28.40;;;16.23;;
5052;SDS011;2545;50.892;5.740;2023-01-25T02:27:35;27.93;;;16.33;;
5052;SDS011;2545;50.892;5.740;2023-01-25T02:30:05;24.60;;;15.70;;
5052;SDS011;2545;50.892;5.740;2023-01-25T02:32:31;25.50;;;15.40;;
5052;SDS011;2545;50.892;5.740;2023-01-25T02:34:57;31.23;;;17.47;;
5052;SDS011;2545;50.892;5.740;2023-01-25T02:37:23;26.93;;;15.33;;
5052;SDS011;2545;50.892;5.740;2023-01-25T02:39:48;25.17;;;15.87;;
5052;SDS011;2545;50.892;5.740;2023-01-25T02:42:15;30.67;;;15.17;;
5052;SDS011;2545;50.892;5.740;2023-01-25T02:44:40;30.10;;;15.27;;
5052;SDS011;2545;50.892;5.740;2023-01-25T02:47:07;27.03;;;15.03;;
5052;SDS011;2545;50.892;5.740;2023-01-25T02:49:35;22.73;;;13.60;;
5052;SDS011;2545;50.892;5.740;2023-01-25T02:52:01;21.27;;;14.27;;
5052;SDS011;2545;50.892;5.740;2023-01-25T02:54:27;25.97;;;15.10;;
5052;SDS011;2545;50.892;5.740;2023-01-25T02:56:53;23.37;;;15.30;;
5052;SDS011;2545;50.892;5.740;2023-01-25T02:59:18;26.30;;;14.83;;
5052;SDS011;2545;50.892;5.740;2023-01-25T03:01:44;27.03;;;16.40;;
5052;SDS011;2545;50.892;5.740;2023-01-25T03:04:10;27.93;;;16.40;;
5052;SDS011;2545;50.892;5.740;2023-01-25T03:06:35;26.50;;;14.80;;
5052;SDS011;2545;50.892;5.740;2023-01-25T03:09:02;23.70;;;14.10;;
5052;SDS011;2545;50.892;5.740;2023-01-25T03:11:29;24.13;;;15.67;;
5052;SDS011;2545;50.892;5.740;2023-01-25T03:13:54;24.70;;;15.33;;
5052;SDS011;2545;50.892;5.740;2023-01-25T03:16:19;27.07;;;16.13;;
5052;SDS011;2545;50.892;5.740;2023-01-25T03:18:45;27.77;;;16.37;;
5052;SDS011;2545;50.892;5.740;2023-01-25T03:21:11;26.60;;;15.67;;
5052;SDS011;2545;50.892;5.740;2023-01-25T03:23:39;27.20;;;16.20;;
5052;SDS011;2545;50.892;5.740;2023-01-25T03:28:36;26.63;;;14.20;;
5052;SDS011;2545;50.892;5.740;2023-01-25T03:31:02;31.20;;;16.83;;
5052;SDS011;2545;50.892;5.740;2023-01-25T03:33:28;28.53;;;16.20;;
5052;SDS011;2545;50.892;5.740;2023-01-25T03:35:53;28.20;;;16.33;;
5052;SDS011;2545;50.892;5.740;2023-01-25T03:38:19;33.30;;;17.03;;
5052;SDS011;2545;50.892;5.740;2023-01-25T03:40:45;24.00;;;15.70;;
5052;SDS011;2545;50.892;5.740;2023-01-25T03:43:10;28.53;;;16.20;;
5052;SDS011;2545;50.892;5.740;2023-01-25T03:45:36;32.03;;;17.00;;
5052;SDS011;2545;50.892;5.740;2023-01-25T03:48:01;28.50;;;17.00;;
5052;SDS011;2545;50.892;5.740;2023-01-25T03:50:26;28.47;;;16.70;;
5052;SDS011;2545;50.892;5.740;2023-01-25T03:52:52;30.40;;;17.13;;
5052;SDS011;2545;50.892;5.740;2023-01-25T03:55:23;26.63;;;16.17;;
5052;SDS011;2545;50.892;5.740;2023-01-25T03:57:49;30.00;;;15.50;;
5052;SDS011;2545;50.892;5.740;2023-01-25T04:00:14;27.20;;;15.07;;
5052;SDS011;2545;50.892;5.740;2023-01-25T04:02:40;33.30;;;17.50;;
5052;SDS011;2545;50.892;5.740;2023-01-25T04:05:05;28.37;;;15.90;;
5052;SDS011;2545;50.892;5.740;2023-01-25T04:07:31;28.80;;;15.93;;
5052;SDS011;2545;50.892;5.740;2023-01-25T04:09:58;26.57;;;15.80;;
5052;SDS011;2545;50.892;5.740;2023-01-25T04:12:23;29.80;;;16.67;;
5052;SDS011;2545;50.892;5.740;2023-01-25T04:14:48;25.30;;;14.27;;
5052;SDS011;2545;50.892;5.740;2023-01-25T04:17:14;27.20;;;16.03;;
5052;SDS011;2545;50.892;5.740;2023-01-25T04:19:39;27.27;;;15.23;;
5052;SDS011;2545;50.892;5.740;2023-01-25T04:22:04;27.63;;;14.40;;
5052;SDS011;2545;50.892;5.740;2023-01-25T04:24:30;27.07;;;16.53;;
5052;SDS011;2545;50.892;5.740;2023-01-25T04:26:55;33.33;;;16.50;;
5052;SDS011;2545;50.892;5.740;2023-01-25T04:29:21;29.67;;;15.80;;
5052;SDS011;2545;50.892;5.740;2023-01-25T04:31:46;27.23;;;15.30;;
5052;SDS011;2545;50.892;5.740;2023-01-25T04:34:11;28.47;;;15.20;;
5052;SDS011;2545;50.892;5.740;2023-01-25T04:36:36;28.43;;;16.63;;
5052;SDS011;2545;50.892;5.740;2023-01-25T04:39:02;30.47;;;16.80;;
5052;SDS011;2545;50.892;5.740;2023-01-25T04:41:27;28.90;;;16.93;;
5052;SDS011;2545;50.892;5.740;2023-01-25T04:43:53;37.00;;;16.73;;
5052;SDS011;2545;50.892;5.740;2023-01-25T04:46:19;31.33;;;17.43;;
5052;SDS011;2545;50.892;5.740;2023-01-25T04:48:44;32.87;;;16.90;;
5052;SDS011;2545;50.892;5.740;2023-01-25T04:51:09;33.10;;;17.30;;
5052;SDS011;2545;50.892;5.740;2023-01-25T04:53:35;38.27;;;17.63;;
5052;SDS011;2545;50.892;5.740;2023-01-25T04:56:00;35.70;;;18.00;;
5052;SDS011;2545;50.892;5.740;2023-01-25T04:58:26;34.53;;;17.77;;
5052;SDS011;2545;50.892;5.740;2023-01-25T05:00:51;31.07;;;17.23;;
5052;SDS011;2545;50.892;5.740;2023-01-25T05:03:16;34.30;;;18.20;;
5052;SDS011;2545;50.892;5.740;2023-01-25T05:05:44;30.73;;;15.90;;
5052;SDS011;2545;50.892;5.740;2023-01-25T05:08:11;40.33;;;17.30;;
5052;SDS011;2545;50.892;5.740;2023-01-25T05:10:36;29.87;;;17.17;;
5052;SDS011;2545;50.892;5.740;2023-01-25T05:13:01;34.17;;;18.30;;
5052;SDS011;2545;50.892;5.740;2023-01-25T05:15:27;30.57;;;16.73;;
5052;SDS011;2545;50.892;5.740;2023-01-25T05:17:52;31.90;;;17.80;;
5052;SDS011;2545;50.892;5.740;2023-01-25T05:20:17;34.20;;;19.23;;
5052;SDS011;2545;50.892;5.740;2023-01-25T05:22:43;32.13;;;18.90;;
5052;SDS011;2545;50.892;5.740;2023-01-25T05:25:08;32.83;;;16.93;;
5052;SDS011;2545;50.892;5.740;2023-01-25T05:27:53;31.90;;;16.73;;
5052;SDS011;2545;50.892;5.740;2023-01-25T05:30:19;36.10;;;19.00;;
5052;SDS011;2545;50.892;5.740;2023-01-25T05:32:44;37.43;;;18.97;;
5052;SDS011;2545;50.892;5.740;2023-01-25T05:35:10;38.30;;;19.93;;
5052;SDS011;2545;50.892;5.740;2023-01-25T05:37:35;39.40;;;19.37;;
5052;SDS011;2545;50.892;5.740;2023-01-25T05:40:00;41.30;;;20.97;;
5052;SDS011;2545;50.892;5.740;2023-01-25T05:42:26;40.87;;;20.23;;
5052;SDS011;2545;50.892;5.740;2023-01-25T05:44:51;39.53;;;18.97;;
5052;SDS011;2545;50.892;5.740;2023-01-25T05:47:16;35.57;;;19.40;;
5052;SDS011;2545;50.892;5.740;2023-01-25T05:49:42;38.07;;;17.87;;
5052;SDS011;2545;50.892;5.740;2023-01-25T05:52:14;38.47;;;18.97;;
5052;SDS011;2545;50.892;5.740;2023-01-25T05:54:41;34.50;;;18.97;;
5052;SDS011;2545;50.892;5.740;2023-01-25T05:57:06;35.23;;;19.03;;
5052;SDS011;2545;50.892;5.740;2023-01-25T05:59:31;37.83;;;19.23;;
5052;SDS011;2545;50.892;5.740;2023-01-25T06:01:57;36.03;;;20.40;;
5052;SDS011;2545;50.892;5.740;2023-01-25T06:04:22;38.93;;;20.60;;
5052;SDS011;2545;50.892;5.740;2023-01-25T06:06:47;39.70;;;19.87;;
5052;SDS011;2545;50.892;5.740;2023-01-25T06:09:13;42.13;;;21.67;;
5052;SDS011;2545;50.892;5.740;2023-01-25T06:11:38;41.97;;;22.47;;
5052;SDS011;2545;50.892;5.740;2023-01-25T06:14:08;40.40;;;20.37;;
5052;SDS011;2545;50.892;5.740;2023-01-25T06:16:33;42.63;;;20.70;;
5052;SDS011;2545;50.892;5.740;2023-01-25T06:18:59;44.70;;;21.50;;
5052;SDS011;2545;50.892;5.740;2023-01-25T06:21:24;42.17;;;19.67;;
5052;SDS011;2545;50.892;5.740;2023-01-25T06:23:49;33.73;;;18.50;;
5052;SDS011;2545;50.892;5.740;2023-01-25T06:26:14;35.43;;;19.23;;
5052;SDS011;2545;50.892;5.740;2023-01-25T06:28:40;35.70;;;18.37;;
5052;SDS011;2545;50.892;5.740;2023-01-25T06:31:09;48.00;;;19.80;;
5052;SDS011;2545;50.892;5.740;2023-01-25T06:33:37;34.70;;;19.37;;
5052;SDS011;2545;50.892;5.740;2023-01-25T06:36:04;33.37;;;18.10;;
5052;SDS011;2545;50.892;5.740;2023-01-25T06:38:37;43.57;;;22.10;;
5052;SDS011;2545;50.892;5.740;2023-01-25T06:41:04;42.40;;;20.97;;
5052;SDS011;2545;50.892;5.740;2023-01-25T06:43:31;47.53;;;21.27;;
5052;SDS011;2545;50.892;5.740;2023-01-25T06:45:58;41.00;;;18.90;;
5052;SDS011;2545;50.892;5.740;2023-01-25T06:48:28;39.63;;;19.63;;
5052;SDS011;2545;50.892;5.740;2023-01-25T06:51:06;47.97;;;22.17;;
5052;SDS011;2545;50.892;5.740;2023-01-25T06:53:34;40.97;;;21.23;;
5052;SDS011;2545;50.892;5.740;2023-01-25T06:56:06;45.43;;;22.63;;
5052;SDS011;2545;50.892;5.740;2023-01-25T06:58:33;39.80;;;20.57;;
5052;SDS011;2545;50.892;5.740;2023-01-25T07:01:03;38.97;;;19.43;;
5052;SDS011;2545;50.892;5.740;2023-01-25T07:03:35;39.40;;;20.37;;
5052;SDS011;2545;50.892;5.740;2023-01-25T07:06:02;45.67;;;21.53;;
5052;SDS011;2545;50.892;5.740;2023-01-25T07:08:29;43.70;;;22.20;;
5052;SDS011;2545;50.892;5.740;2023-01-25T07:11:02;39.03;;;19.37;;
5052;SDS011;2545;50.892;5.740;2023-01-25T07:13:29;48.83;;;24.70;;
5052;SDS011;2545;50.892;5.740;2023-01-25T07:16:06;46.13;;;20.67;;
5052;SDS011;2545;50.892;5.740;2023-01-25T07:18:33;47.67;;;22.33;;
5052;SDS011;2545;50.892;5.740;2023-01-25T07:21:05;46.60;;;21.60;;
5052;SDS011;2545;50.892;5.740;2023-01-25T07:23:32;53.43;;;21.80;;
5052;SDS011;2545;50.892;5.740;2023-01-25T07:25:58;47.50;;;23.10;;
5052;SDS011;2545;50.892;5.740;2023-01-25T07:28:24;53.63;;;21.33;;
5052;SDS011;2545;50.892;5.740;2023-01-25T07:30:50;45.13;;;20.63;;
5052;SDS011;2545;50.892;5.740;2023-01-25T07:33:15;45.37;;;20.87;;
5052;SDS011;2545;50.892;5.740;2023-01-25T07:35:41;42.77;;;19.47;;
5052;SDS011;2545;50.892;5.740;2023-01-25T07:38:07;40.53;;;21.00;;
5052;SDS011;2545;50.892;5.740;2023-01-25T07:40:32;41.77;;;21.10;;
5052;SDS011;2545;50.892;5.740;2023-01-25T07:42:58;50.43;;;22.90;;
5052;SDS011;2545;50.892;5.740;2023-01-25T07:45:24;48.37;;;24.20;;
5052;SDS011;2545;50.892;5.740;2023-01-25T07:47:54;48.37;;;23.30;;
5052;SDS011;2545;50.892;5.740;2023-01-25T07:50:23;46.00;;;22.73;;
5052;SDS011;2545;50.892;5.740;2023-01-25T07:52:49;46.50;;;23.10;;
5052;SDS011;2545;50.892;5.740;2023-01-25T07:55:14;45.00;;;20.03;;
5052;SDS011;2545;50.892;5.740;2023-01-25T07:57:39;38.40;;;20.03;;
5052;SDS011;2545;50.892;5.740;2023-01-25T08:00:05;48.13;;;22.53;;
5052;SDS011;2545;50.892;5.740;2023-01-25T08:02:31;44.30;;;20.23;;
5052;SDS011;2545;50.892;5.740;2023-01-25T08:04:57;38.23;;;19.33;;
5052;SDS011;2545;50.892;5.740;2023-01-25T08:07:22;46.27;;;21.90;;
5052;SDS011;2545;50.892;5.740;2023-01-25T08:09:48;41.50;;;21.90;;
5052;SDS011;2545;50.892;5.740;2023-01-25T08:12:13;39.93;;;19.70;;
5052;SDS011;2545;50.892;5.740;2023-01-25T08:14:38;42.00;;;19.27;;
5052;SDS011;2545;50.892;5.740;2023-01-25T08:17:04;45.20;;;22.90;;
5052;SDS011;2545;50.892;5.740;2023-01-25T08:19:29;41.70;;;22.30;;
5052;SDS011;2545;50.892;5.740;2023-01-25T08:21:54;103.33;;;23.20;;
5052;SDS011;2545;50.892;5.740;2023-01-25T08:24:20;45.13;;;21.40;;
5052;SDS011;2545;50.892;5.740;2023-01-25T08:26:45;45.97;;;21.67;;
5052;SDS011;2545;50.892;5.740;2023-01-25T08:29:11;46.10;;;21.03;;
5052;SDS011;2545;50.892;5.740;2023-01-25T08:31:38;46.57;;;21.50;;
5052;SDS011;2545;50.892;5.740;2023-01-25T08:34:05;46.07;;;22.80;;
5052;SDS011;2545;50.892;5.740;2023-01-25T08:36:31;45.97;;;21.53;;
5052;SDS011;2545;50.892;5.740;2023-01-25T08:38:58;45.43;;;22.73;;
5052;SDS011;2545;50.892;5.740;2023-01-25T08:41:25;49.57;;;22.93;;
5052;SDS011;2545;50.892;5.740;2023-01-25T08:43:52;43.90;;;22.30;;
5052;SDS011;2545;50.892;5.740;2023-01-25T08:46:19;44.10;;;21.70;;
5052;SDS011;2545;50.892;5.740;2023-01-25T08:48:46;42.07;;;20.47;;
5052;SDS011;2545;50.892;5.740;2023-01-25T08:51:12;41.57;;;21.53;;
5052;SDS011;2545;50.892;5.740;2023-01-25T08:53:41;41.40;;;20.83;;
5052;SDS011;2545;50.892;5.740;2023-01-25T08:56:10;42.40;;;21.60;;
5052;SDS011;2545;50.892;5.740;2023-01-25T08:58:37;39.03;;;19.73;;
5052;SDS011;2545;50.892;5.740;2023-01-25T09:01:06;42.20;;;20.50;;
5052;SDS011;2545;50.892;5.740;2023-01-25T09:03:37;49.73;;;21.50;;
5052;SDS011;2545;50.892;5.740;2023-01-25T09:06:04;42.10;;;21.10;;
5052;SDS011;2545;50.892;5.740;2023-01-25T09:08:31;40.33;;;20.33;;
5052;SDS011;2545;50.892;5.740;2023-01-25T09:11:00;43.40;;;19.90;;
5052;SDS011;2545;50.892;5.740;2023-01-25T09:13:30;50.33;;;20.97;;
5052;SDS011;2545;50.892;5.740;2023-01-25T09:16:05;47.33;;;20.07;;
5052;SDS011;2545;50.892;5.740;2023-01-25T09:18:34;46.00;;;21.80;;
5052;SDS011;2545;50.892;5.740;2023-01-25T09:21:04;44.93;;;20.13;;
5052;SDS011;2545;50.892;5.740;2023-01-25T09:23:31;50.00;;;24.37;;
5052;SDS011;2545;50.892;5.740;2023-01-25T09:25:57;46.60;;;20.47;;
5052;SDS011;2545;50.892;5.740;2023-01-25T09:28:23;39.23;;;20.77;;
5052;SDS011;2545;50.892;5.740;2023-01-25T09:30:59;46.73;;;20.77;;
5052;SDS011;2545;50.892;5.740;2023-01-25T09:33:35;48.20;;;20.63;;
5052;SDS011;2545;50.892;5.740;2023-01-25T09:36:02;42.97;;;19.93;;
5052;SDS011;2545;50.892;5.740;2023-01-25T09:38:28;49.87;;;22.30;;
5052;SDS011;2545;50.892;5.740;2023-01-25T09:43:51;48.20;;;21.27;;
5052;SDS011;2545;50.892;5.740;2023-01-25T09:49:17;53.57;;;21.23;;
5052;SDS011;2545;50.892;5.740;2023-01-25T09:54:23;48.77;;;20.87;;
5052;SDS011;2545;50.892;5.740;2023-01-25T09:56:52;52.10;;;23.53;;
5052;SDS011;2545;50.892;5.740;2023-01-25T09:59:18;45.80;;;21.00;;
5052;SDS011;2545;50.892;5.740;2023-01-25T10:01:54;49.33;;;22.10;;
5052;SDS011;2545;50.892;5.740;2023-01-25T10:04:25;47.80;;;23.40;;
5052;SDS011;2545;50.892;5.740;2023-01-25T10:07:10;44.50;;;21.10;;
5052;SDS011;2545;50.892;5.740;2023-01-25T10:12:37;53.27;;;23.90;;
5052;SDS011;2545;50.892;5.740;2023-01-25T10:16:04;49.80;;;23.50;;
5052;SDS011;2545;50.892;5.740;2023-01-25T10:18:20;51.73;;;24.27;;
5052;SDS011;2545;50.892;5.740;2023-01-25T10:20:52;48.47;;;22.17;;
5052;SDS011;2545;50.892;5.740;2023-01-25T10:26:00;53.03;;;22.20;;
5052;SDS011;2545;50.892;5.740;2023-01-25T10:28:36;46.10;;;21.20;;
5052;SDS011;2545;50.892;5.740;2023-01-25T10:31:19;51.17;;;23.90;;
5052;SDS011;2545;50.892;5.740;2023-01-25T10:33:51;52.27;;;23.23;;
5052;SDS011;2545;50.892;5.740;2023-01-25T10:36:23;47.40;;;21.03;;
5052;SDS011;2545;50.892;5.740;2023-01-25T10:38:53;55.60;;;22.50;;
5052;SDS011;2545;50.892;5.740;2023-01-25T10:41:31;50.90;;;21.60;;
5052;SDS011;2545;50.892;5.740;2023-01-25T10:44:03;52.93;;;25.07;;
5052;SDS011;2545;50.892;5.740;2023-01-25T10:46:57;48.90;;;21.37;;
5052;SDS011;2545;50.892;5.740;2023-01-25T10:52:21;48.33;;;20.17;;
5052;SDS011;2545;50.892;5.740;2023-01-25T10:57:35;54.70;;;22.70;;
5052;SDS011;2545;50.892;5.740;2023-01-25T11:00:06;53.40;;;23.13;;
5052;SDS011;2545;50.892;5.740;2023-01-25T11:02:37;50.87;;;23.80;;
5052;SDS011;2545;50.892;5.740;2023-01-25T11:07:42;60.33;;;25.80;;
5052;SDS011;2545;50.892;5.740;2023-01-25T11:10:24;51.53;;;23.17;;
5052;SDS011;2545;50.892;5.740;2023-01-25T11:15:39;56.43;;;24.30;;
5052;SDS011;2545;50.892;5.740;2023-01-25T11:18:12;54.60;;;25.07;;
5052;SDS011;2545;50.892;5.740;2023-01-25T11:20:43;52.50;;;23.77;;
5052;SDS011;2545;50.892;5.740;2023-01-25T11:23:41;49.37;;;23.83;;
5052;SDS011;2545;50.892;5.740;2023-01-25T11:26:13;46.10;;;22.70;;
5052;SDS011;2545;50.892;5.740;2023-01-25T11:28:41;52.93;;;23.87;;
5052;SDS011;2545;50.892;5.740;2023-01-25T11:31:09;50.43;;;23.47;;
5052;SDS011;2545;50.892;5.740;2023-01-25T11:33:37;53.07;;;24.70;;
5052;SDS011;2545;50.892;5.740;2023-01-25T11:36:21;49.10;;;23.73;;
5052;SDS011;2545;50.892;5.740;2023-01-25T11:39:14;59.77;;;25.60;;
5052;SDS011;2545;50.892;5.740;2023-01-25T11:50:23;53.50;;;24.17;;
5052;SDS011;2545;50.892;5.740;2023-01-25T11:58:32;53.10;;;24.07;;
5052;SDS011;2545;50.892;5.740;2023-01-25T12:01:09;60.10;;;24.57;;
5052;SDS011;2545;50.892;5.740;2023-01-25T12:30:51;61.70;;;26.80;;
5052;SDS011;2545;50.892;5.740;2023-01-25T12:33:43;74.97;;;28.17;;
5052;SDS011;2545;50.892;5.740;2023-01-25T12:36:17;73.10;;;27.97;;
5052;SDS011;2545;50.892;5.740;2023-01-25T12:47:01;61.80;;;27.10;;
5052;SDS011;2545;50.892;5.740;2023-01-25T12:55:01;62.90;;;23.93;;
5052;SDS011;2545;50.892;5.740;2023-01-25T12:57:38;67.90;;;25.77;;
5052;SDS011;2545;50.892;5.740;2023-01-25T13:03:18;66.33;;;26.33;;
5052;SDS011;2545;50.892;5.740;2023-01-25T13:11:20;77.73;;;26.57;;
5052;SDS011;2545;50.892;5.740;2023-01-25T13:13:49;68.60;;;24.93;;
5052;SDS011;2545;50.892;5.740;2023-01-25T13:16:30;71.23;;;26.67;;
5052;SDS011;2545;50.892;5.740;2023-01-25T13:19:00;67.33;;;25.37;;
5052;SDS011;2545;50.892;5.740;2023-01-25T13:26:47;78.37;;;28.60;;
5052;SDS011;2545;50.892;5.740;2023-01-25T13:31:57;70.43;;;25.43;;
5052;SDS011;2545;50.892;5.740;2023-01-25T13:45:11;69.83;;;25.00;;
5052;SDS011;2545;50.892;5.740;2023-01-25T13:47:39;66.00;;;21.60;;
5052;SDS011;2545;50.892;5.740;2023-01-25T13:50:25;51.03;;;22.40;;
5052;SDS011;2545;50.892;5.740;2023-01-25T13:52:56;59.47;;;21.20;;
5052;SDS011;2545;50.892;5.740;2023-01-25T13:55:24;65.53;;;24.17;;
5052;SDS011;2545;50.892;5.740;2023-01-25T13:57:50;66.97;;;25.20;;
5052;SDS011;2545;50.892;5.740;2023-01-25T14:00:16;63.00;;;23.60;;
5052;SDS011;2545;50.892;5.740;2023-01-25T14:02:42;75.83;;;27.00;;
5052;SDS011;2545;50.892;5.740;2023-01-25T14:05:17;62.23;;;24.37;;
5052;SDS011;2545;50.892;5.740;2023-01-25T14:07:43;66.33;;;23.73;;
5052;SDS011;2545;50.892;5.740;2023-01-25T14:10:13;65.53;;;23.90;;
5052;SDS011;2545;50.892;5.740;2023-01-25T14:12:43;52.87;;;22.77;;
5052;SDS011;2545;50.892;5.740;2023-01-25T14:15:15;62.40;;;25.37;;
5052;SDS011;2545;50.892;5.740;2023-01-25T14:17:41;59.20;;;24.33;;
5052;SDS011;2545;50.892;5.740;2023-01-25T14:20:15;54.80;;;22.57;;
5052;SDS011;2545;50.892;5.740;2023-01-25T14:22:45;59.30;;;22.90;;
5052;SDS011;2545;50.892;5.740;2023-01-25T14:25:16;66.17;;;22.20;;
5052;SDS011;2545;50.892;5.740;2023-01-25T14:27:49;70.13;;;24.50;;
5052;SDS011;2545;50.892;5.740;2023-01-25T14:30:18;65.20;;;23.20;;
5052;SDS011;2545;50.892;5.740;2023-01-25T14:32:50;64.80;;;23.33;;
5052;SDS011;2545;50.892;5.740;2023-01-25T14:35:35;73.57;;;21.87;;
5052;SDS011;2545;50.892;5.740;2023-01-25T14:40:52;70.60;;;23.00;;
5052;SDS011;2545;50.892;5.740;2023-01-25T14:43:43;59.73;;;22.17;;
5052;SDS011;2545;50.892;5.740;2023-01-25T14:46:25;55.93;;;23.30;;
5052;SDS011;2545;50.892;5.740;2023-01-25T14:51:56;69.40;;;21.20;;
5052;SDS011;2545;50.892;5.740;2023-01-25T14:54:30;69.20;;;22.40;;
5052;SDS011;2545;50.892;5.740;2023-01-25T14:56:58;74.43;;;23.77;;
5052;SDS011;2545;50.892;5.740;2023-01-25T15:05:03;66.40;;;26.10;;
5052;SDS011;2545;50.892;5.740;2023-01-25T15:12:40;72.53;;;26.10;;
5052;SDS011;2545;50.892;5.740;2023-01-25T15:15:18;77.43;;;27.00;;
5052;SDS011;2545;50.892;5.740;2023-01-25T15:17:47;69.40;;;21.60;;
5052;SDS011;2545;50.892;5.740;2023-01-25T15:25:51;56.33;;;20.73;;
5052;SDS011;2545;50.892;5.740;2023-01-25T15:28:18;62.50;;;21.13;;
5052;SDS011;2545;50.892;5.740;2023-01-25T15:30:44;59.93;;;23.60;;
5052;SDS011;2545;50.892;5.740;2023-01-25T15:33:31;63.63;;;22.50;;
5052;SDS011;2545;50.892;5.740;2023-01-25T15:35:56;56.10;;;22.47;;
5052;SDS011;2545;50.892;5.740;2023-01-25T15:38:23;55.63;;;23.80;;
5052;SDS011;2545;50.892;5.740;2023-01-25T15:40:49;59.97;;;24.20;;
5052;SDS011;2545;50.892;5.740;2023-01-25T15:43:15;68.10;;;23.57;;
5052;SDS011;2545;50.892;5.740;2023-01-25T15:45:43;55.03;;;20.57;;
5052;SDS011;2545;50.892;5.740;2023-01-25T15:48:12;54.37;;;22.60;;
5052;SDS011;2545;50.892;5.740;2023-01-25T15:50:39;49.27;;;19.00;;
5052;SDS011;2545;50.892;5.740;2023-01-25T15:53:05;52.30;;;18.40;;
5052;SDS011;2545;50.892;5.740;2023-01-25T15:55:31;47.93;;;18.80;;
5052;SDS011;2545;50.892;5.740;2023-01-25T15:57:57;43.17;;;18.00;;
5052;SDS011;2545;50.892;5.740;2023-01-25T16:00:22;49.97;;;16.90;;
5052;SDS011;2545;50.892;5.740;2023-01-25T16:02:48;58.70;;;19.53;;
5052;SDS011;2545;50.892;5.740;2023-01-25T16:05:14;44.00;;;17.17;;
5052;SDS011;2545;50.892;5.740;2023-01-25T16:07:39;40.37;;;16.80;;
5052;SDS011;2545;50.892;5.740;2023-01-25T16:10:20;46.90;;;17.43;;
5052;SDS011;2545;50.892;5.740;2023-01-25T16:12:48;34.13;;;13.83;;
5052;SDS011;2545;50.892;5.740;2023-01-25T16:15:14;38.47;;;15.00;;
5052;SDS011;2545;50.892;5.740;2023-01-25T16:17:39;44.10;;;16.87;;
5052;SDS011;2545;50.892;5.740;2023-01-25T16:20:05;42.33;;;17.40;;
5052;SDS011;2545;50.892;5.740;2023-01-25T16:22:31;40.60;;;14.03;;
5052;SDS011;2545;50.892;5.740;2023-01-25T16:24:57;46.00;;;17.03;;
5052;SDS011;2545;50.892;5.740;2023-01-25T16:27:24;40.47;;;15.70;;
5052;SDS011;2545;50.892;5.740;2023-01-25T16:29:51;43.63;;;16.20;;
5052;SDS011;2545;50.892;5.740;2023-01-25T16:32:16;35.77;;;16.97;;
5052;SDS011;2545;50.892;5.740;2023-01-25T16:34:42;46.87;;;15.70;;
5052;SDS011;2545;50.892;5.740;2023-01-25T16:37:12;39.77;;;16.40;;
5052;SDS011;2545;50.892;5.740;2023-01-25T16:39:39;40.67;;;15.77;;
5052;SDS011;2545;50.892;5.740;2023-01-25T16:42:04;38.23;;;15.87;;
5052;SDS011;2545;50.892;5.740;2023-01-25T16:44:29;44.47;;;15.97;;
5052;SDS011;2545;50.892;5.740;2023-01-25T16:46:55;43.67;;;14.93;;
5052;SDS011;2545;50.892;5.740;2023-01-25T16:49:21;43.47;;;15.97;;
5052;SDS011;2545;50.892;5.740;2023-01-25T16:51:51;35.17;;;15.27;;
5052;SDS011;2545;50.892;5.740;2023-01-25T16:54:18;44.10;;;16.63;;
5052;SDS011;2545;50.892;5.740;2023-01-25T16:56:44;42.03;;;16.03;;
5052;SDS011;2545;50.892;5.740;2023-01-25T16:59:09;40.30;;;16.10;;
5052;SDS011;2545;50.892;5.740;2023-01-25T17:01:35;46.73;;;15.87;;
5052;SDS011;2545;50.892;5.740;2023-01-25T17:04:04;51.27;;;16.77;;
5052;SDS011;2545;50.892;5.740;2023-01-25T17:06:31;46.33;;;17.00;;
5052;SDS011;2545;50.892;5.740;2023-01-25T17:08:58;46.17;;;17.60;;
5052;SDS011;2545;50.892;5.740;2023-01-25T17:11:25;47.27;;;17.70;;
5052;SDS011;2545;50.892;5.740;2023-01-25T17:13:52;45.43;;;16.43;;